Time,TemperatureF,DewpointF,PressureIn,WindDirection,WindDirectionDegrees,WindSpeedMPH,WindSpeedGustMPH,Humidity,HourlyPrecipIn,Conditions,Clouds,dailyrainin,SoftwareType,DateUTC
2013-05-23 00:12:00,65.7,65.1,29.72,SSW,202,0.0,-999.0,98,-99.99,,,0.00,Acu-Link.com,2013-05-23 04:12:00,
2013-05-23 00:28:00,66.2,65.6,29.73,WNW,292,0.0,-999.0,98,-99.99,,,0.00,Acu-Link.com,2013-05-23 04:28:00,
2013-05-23 00:43:00,66.6,66.0,29.73,South,180,0.0,-999.0,98,-99.99,,,0.00,Acu-Link.com,2013-05-23 04:43:00,
2013-05-23 00:58:00,66.9,66.3,29.72,SSE,157,0.0,-999.0,98,-99.99,,,0.00,Acu-Link.com,2013-05-23 04:58:00,
2013-05-23 01:14:00,66.9,66.3,29.72,NW,315,0.0,-999.0,98,-99.99,,,0.00,Acu-Link.com,2013-05-23 05:14:00,
2013-05-23 01:29:00,66.7,66.1,29.72,NW,315,0.0,-999.0,98,-99.99,,,0.00,Acu-Link.com,2013-05-23 05:29:00,
2013-05-23 01:44:00,66.4,65.8,29.72,SW,225,0.0,-999.0,98,-99.99,,,0.00,Acu-Link.com,2013-05-23 05:44:00,
2013-05-23 02:00:00,66.4,65.8,29.72,West,270,0.0,-999.0,98,-99.99,,,0.00,Acu-Link.com,2013-05-23 06:00:00,
2013-05-23 02:15:00,65.8,65.2,29.72,West,270,0.0,-999.0,98,-99.99,,,0.00,Acu-Link.com,2013-05-23 06:15:00,
2013-05-23 02:30:00,65.3,64.7,29.72,West,270,0.0,-999.0,98,-99.99,,,0.00,Acu-Link.com,2013-05-23 06:30:00,
2013-05-23 02:46:00,64.9,64.3,29.72,WNW,292,0.0,-999.0,98,-99.99,,,0.00,Acu-Link.com,2013-05-23 06:46:00,
2013-05-23 03:01:00,64.6,64.0,29.72,NNW,337,0.0,-999.0,98,-99.99,,,0.00,Acu-Link.com,2013-05-23 07:01:00,
2013-05-23 03:16:00,64.2,63.6,29.73,NNW,337,0.0,-999.0,98,-99.99,,,0.00,Acu-Link.com,2013-05-23 07:16:00,
2013-05-23 03:32:00,64.2,63.6,29.73,NNW,337,0.0,-999.0,98,-99.99,,,0.00,Acu-Link.com,2013-05-23 07:32:00,
2013-05-23 03:47:00,63.9,63.3,29.73,NNW,337,0.0,-999.0,98,-99.99,,,0.00,Acu-Link.com,2013-05-23 07:47:00,
2013-05-23 04:02:00,63.9,63.3,29.74,NNW,337,0.0,-999.0,98,-99.99,,,0.00,Acu-Link.com,2013-05-23 08:02:00,
2013-05-23 04:18:00,63.7,63.1,29.74,NNW,337,0.0,-999.0,98,-99.99,,,0.00,Acu-Link.com,2013-05-23 08:18:00,
2013-05-23 04:33:00,63.9,63.3,29.74,NW,315,0.0,-999.0,98,-99.99,,,0.00,Acu-Link.com,2013-05-23 08:33:00,
2013-05-23 04:48:00,63.7,63.1,29.75,NW,315,0.0,-999.0,98,-99.99,,,0.00,Acu-Link.com,2013-05-23 08:48:00,
2013-05-23 05:03:00,63.3,62.7,29.75,West,270,0.0,-999.0,98,-99.99,,,0.00,Acu-Link.com,2013-05-23 09:03:00,
2013-05-23 05:18:00,63.1,62.5,29.76,West,270,0.0,-999.0,98,-99.99,,,0.00,Acu-Link.com,2013-05-23 09:18:00,
2013-05-23 05:34:00,62.8,62.2,29.76,West,270,0.0,-999.0,98,-99.99,,,0.00,Acu-Link.com,2013-05-23 09:34:00,
2013-05-23 05:49:00,62.4,61.8,29.76,West,270,0.0,-999.0,98,-99.99,,,0.00,Acu-Link.com,2013-05-23 09:49:00,
2013-05-23 06:04:00,62.1,61.5,29.76,West,270,0.0,-999.0,98,-99.99,,,0.00,Acu-Link.com,2013-05-23 10:04:00,
2013-05-23 06:19:00,61.7,61.1,29.77,West,270,0.0,-999.0,98,-99.99,,,0.00,Acu-Link.com,2013-05-23 10:19:00,
2013-05-23 06:34:00,61.7,61.1,29.77,West,270,0.0,-999.0,98,-99.99,,,0.00,Acu-Link.com,2013-05-23 10:34:00,
2013-05-23 06:50:00,61.5,60.9,29.77,West,270,0.0,-999.0,98,-99.99,,,0.00,Acu-Link.com,2013-05-23 10:50:00,
2013-05-23 07:05:00,61.7,61.1,29.78,West,270,0.0,-999.0,98,-99.99,,,0.00,Acu-Link.com,2013-05-23 11:05:00,
2013-05-23 07:20:00,62.1,61.5,29.79,West,270,0.0,-999.0,98,-99.99,,,0.00,Acu-Link.com,2013-05-23 11:20:00,
2013-05-23 07:35:00,62.6,62.0,29.79,West,270,0.0,-999.0,98,-99.99,,,0.00,Acu-Link.com,2013-05-23 11:35:00,
2013-05-23 07:51:00,63.3,62.7,29.79,West,270,0.0,-999.0,98,-99.99,,,0.00,Acu-Link.com,2013-05-23 11:51:00,
2013-05-23 08:06:00,64.8,64.2,29.79,NW,315,0.0,-999.0,98,-99.99,,,0.00,Acu-Link.com,2013-05-23 12:06:00,
2013-05-23 08:21:00,66.4,65.8,29.79,WNW,292,0.0,-999.0,98,-99.99,,,0.00,Acu-Link.com,2013-05-23 12:21:00,
2013-05-23 08:36:00,68.5,67.9,29.80,ENE,67,0.0,-999.0,98,-99.99,,,0.00,Acu-Link.com,2013-05-23 12:36:00,
2013-05-23 08:51:00,69.4,68.8,29.79,WNW,292,0.0,-999.0,98,-99.99,,,0.00,Acu-Link.com,2013-05-23 12:51:00,
2013-05-23 09:07:00,71.6,71.0,29.79,NE,45,0.0,-999.0,98,-99.99,,,0.00,Acu-Link.com,2013-05-23 13:07:00,
2013-05-23 09:22:00,70.5,68.1,29.80,ESE,112,0.0,-999.0,92,-99.99,,,0.00,Acu-Link.com,2013-05-23 13:22:00,
2013-05-23 09:37:00,70.2,68.1,29.80,NNE,22,0.0,-999.0,93,-99.99,,,0.00,Acu-Link.com,2013-05-23 13:37:00,
2013-05-23 09:53:00,72.9,69.8,29.80,SSE,157,2.7,-999.0,90,-99.99,,,0.00,Acu-Link.com,2013-05-23 13:53:00,
2013-05-23 10:08:00,73.2,69.4,29.79,ESE,112,2.2,-999.0,88,-99.99,,,0.00,Acu-Link.com,2013-05-23 14:08:00,
2013-05-23 10:23:00,74.7,70.2,29.79,ESE,112,1.7,-999.0,86,-99.99,,,0.00,Acu-Link.com,2013-05-23 14:23:00,
2013-05-23 10:38:00,76.3,70.4,29.79,East,90,1.1,-999.0,82,-99.99,,,0.00,Acu-Link.com,2013-05-23 14:38:00,
2013-05-23 10:53:00,77.7,70.3,29.78,ENE,67,1.7,-999.0,78,-99.99,,,0.00,Acu-Link.com,2013-05-23 14:53:00,
2013-05-23 11:09:00,77.2,69.0,29.78,ESE,112,2.2,-999.0,76,-99.99,,,0.00,Acu-Link.com,2013-05-23 15:09:00,
2013-05-23 11:24:00,77.0,68.1,29.78,ESE,112,1.7,-999.0,74,-99.99,,,0.00,Acu-Link.com,2013-05-23 15:24:00,
2013-05-23 11:39:00,78.1,68.7,29.78,SSW,202,1.7,-999.0,73,-99.99,,,0.00,Acu-Link.com,2013-05-23 15:39:00,
2013-05-23 11:54:00,77.7,67.9,29.79,South,180,0.0,-999.0,72,-99.99,,,0.00,Acu-Link.com,2013-05-23 15:54:00,
2013-05-23 12:09:00,76.5,68.4,29.78,ENE,67,1.7,-999.0,76,-99.99,,,0.00,Acu-Link.com,2013-05-23 16:09:00,
2013-05-23 12:25:00,76.5,68.7,29.77,SW,225,0.0,-999.0,77,-99.99,,,0.00,Acu-Link.com,2013-05-23 16:25:00,
2013-05-23 12:40:00,79.2,68.1,29.76,SSE,157,1.7,-999.0,69,-99.99,,,0.00,Acu-Link.com,2013-05-23 16:40:00,
2013-05-23 12:55:00,79.2,69.0,29.75,NNW,337,1.7,-999.0,71,-99.99,,,0.00,Acu-Link.com,2013-05-23 16:55:00,
2013-05-23 13:11:00,78.8,67.3,29.76,North,0,3.2,-999.0,68,-99.99,,,0.00,Acu-Link.com,2013-05-23 17:11:00,
2013-05-23 13:26:00,80.2,66.4,29.75,West,270,2.7,-999.0,63,-99.99,,,0.00,Acu-Link.com,2013-05-23 17:26:00,
2013-05-23 13:41:00,81.9,65.6,29.75,NNW,337,5.3,-999.0,58,-99.99,,,0.00,Acu-Link.com,2013-05-23 17:41:00,
2013-05-23 13:57:00,79.5,64.4,29.75,SW,225,2.7,-999.0,60,-99.99,,,0.00,Acu-Link.com,2013-05-23 17:57:00,
2013-05-23 14:12:00,81.1,64.4,29.76,South,180,3.7,-999.0,57,-99.99,,,0.00,Acu-Link.com,2013-05-23 18:12:00,
2013-05-23 14:27:00,81.1,63.9,29.76,WSW,247,2.2,-999.0,56,-99.99,,,0.00,Acu-Link.com,2013-05-23 18:27:00,
2013-05-23 14:42:00,83.3,61.5,29.76,North,0,2.7,-999.0,48,-99.99,,,0.00,Acu-Link.com,2013-05-23 18:42:00,
2013-05-23 14:57:00,81.7,61.2,29.75,West,270,2.2,-999.0,50,-99.99,,,0.00,Acu-Link.com,2013-05-23 18:57:00,
2013-05-23 15:13:00,82.2,61.1,29.76,NW,315,2.2,-999.0,49,-99.99,,,0.00,Acu-Link.com,2013-05-23 19:13:00,
2013-05-23 15:28:00,82.9,59.4,29.77,West,270,2.7,-999.0,45,-99.99,,,0.00,Acu-Link.com,2013-05-23 19:28:00,
2013-05-23 15:43:00,81.5,60.5,29.76,NW,315,1.7,-999.0,49,-99.99,,,0.00,Acu-Link.com,2013-05-23 19:43:00,
2013-05-23 15:58:00,83.1,58.9,29.74,SW,225,6.3,-999.0,44,-99.99,,,0.00,Acu-Link.com,2013-05-23 19:58:00,
2013-05-23 16:14:00,83.1,58.3,29.74,West,270,4.2,-999.0,43,-99.99,,,0.00,Acu-Link.com,2013-05-23 20:14:00,
2013-05-23 16:29:00,83.5,59.9,29.74,West,270,3.7,-999.0,45,-99.99,,,0.00,Acu-Link.com,2013-05-23 20:29:00,
2013-05-23 16:44:00,80.2,57.5,29.75,NW,315,2.7,-999.0,46,-99.99,,,0.00,Acu-Link.com,2013-05-23 20:44:00,
2013-05-23 17:00:00,81.5,58.7,29.75,WSW,247,2.2,-999.0,46,-99.99,,,0.00,Acu-Link.com,2013-05-23 21:00:00,
2013-05-23 17:15:00,80.6,57.9,29.76,SW,225,4.7,-999.0,46,-99.99,,,0.00,Acu-Link.com,2013-05-23 21:15:00,
2013-05-23 17:30:00,79.5,58.6,29.76,SW,225,2.7,-999.0,49,-99.99,,,0.00,Acu-Link.com,2013-05-23 21:30:00,
2013-05-23 17:45:00,78.8,59.7,29.77,SW,225,3.2,-999.0,52,-99.99,,,0.00,Acu-Link.com,2013-05-23 21:45:00,
2013-05-23 18:00:00,77.5,57.4,29.77,SSW,202,2.7,-999.0,50,-99.99,,,0.00,Acu-Link.com,2013-05-23 22:00:00,
2013-05-23 18:16:00,78.3,58.1,29.77,SW,225,5.3,-999.0,50,-99.99,,,0.00,Acu-Link.com,2013-05-23 22:16:00,
2013-05-23 18:31:00,77.9,57.7,29.77,WNW,292,1.7,-999.0,50,-99.99,,,0.00,Acu-Link.com,2013-05-23 22:31:00,
2013-05-23 18:46:00,77.2,58.7,29.78,SSW,202,1.7,-999.0,53,-99.99,,,0.00,Acu-Link.com,2013-05-23 22:46:00,
2013-05-23 19:01:00,76.1,58.7,29.78,NW,315,5.8,-999.0,55,-99.99,,,0.00,Acu-Link.com,2013-05-23 23:01:00,
2013-05-23 19:17:00,75.4,59.1,29.78,WSW,247,2.2,-999.0,57,-99.99,,,0.00,Acu-Link.com,2013-05-23 23:17:00,
2013-05-23 19:32:00,74.8,58.5,29.78,NNW,337,1.7,-999.0,57,-99.99,,,0.00,Acu-Link.com,2013-05-23 23:32:00,
2013-05-23 19:47:00,73.6,58.8,29.79,West,270,0.0,-999.0,60,-99.99,,,0.00,Acu-Link.com,2013-05-23 23:47:00,
2013-05-23 20:03:00,72.7,58.0,29.79,West,270,1.7,-999.0,60,-99.99,,,0.00,Acu-Link.com,2013-05-24 00:03:00,
2013-05-23 20:18:00,72.5,58.3,29.79,West,270,2.2,-999.0,61,-99.99,,,0.00,Acu-Link.com,2013-05-24 00:18:00,
2013-05-23 20:33:00,71.8,58.5,29.80,West,270,0.0,-999.0,63,-99.99,,,0.00,Acu-Link.com,2013-05-24 00:33:00,
2013-05-23 20:49:00,70.9,58.1,29.81,West,270,0.0,-999.0,64,-99.99,,,0.00,Acu-Link.com,2013-05-24 00:49:00,
2013-05-23 21:04:00,69.4,58.4,29.81,WNW,292,0.0,-999.0,68,-99.99,,,0.00,Acu-Link.com,2013-05-24 01:04:00,
2013-05-23 21:19:00,69.1,58.1,29.81,WNW,292,0.0,-999.0,68,-99.99,,,0.00,Acu-Link.com,2013-05-24 01:19:00,
2013-05-23 21:34:00,68.9,57.9,29.81,North,0,3.2,-999.0,68,-99.99,,,0.00,Acu-Link.com,2013-05-24 01:34:00,
2013-05-23 21:49:00,68.9,57.9,29.83,SSW,202,1.7,-999.0,68,-99.99,,,0.00,Acu-Link.com,2013-05-24 01:49:00,
2013-05-23 22:05:00,68.5,57.9,29.83,SSW,202,1.1,-999.0,69,-99.99,,,0.00,Acu-Link.com,2013-05-24 02:05:00,
2013-05-23 22:20:00,68.0,57.8,29.84,NNW,337,0.0,-999.0,70,-99.99,,,0.00,Acu-Link.com,2013-05-24 02:20:00,
2013-05-23 22:35:00,67.3,58.0,29.84,South,180,1.7,-999.0,72,-99.99,,,0.00,Acu-Link.com,2013-05-24 02:35:00,
2013-05-23 22:50:00,66.9,57.2,29.84,North,0,1.7,-999.0,71,-99.99,,,0.00,Acu-Link.com,2013-05-24 02:50:00,
2013-05-23 23:06:00,66.4,56.7,29.84,West,270,0.0,-999.0,71,-99.99,,,0.00,Acu-Link.com,2013-05-24 03:06:00,
2013-05-23 23:21:00,65.3,56.8,29.84,West,270,0.0,-999.0,74,-99.99,,,0.00,Acu-Link.com,2013-05-24 03:21:00,
2013-05-23 23:36:00,64.8,56.7,29.83,SSW,202,0.0,-999.0,75,-99.99,,,0.00,Acu-Link.com,2013-05-24 03:36:00,